Time;durP1;ratioP1;P1;durP2;ratioP2;P2;SDS_P1;SDS_P2;PMS_P1;PMS_P2;Temp;Humidity;BMP_temperature;BMP_pressure;BME280_temperature;BME280_humidity;BME280_pressure;Samples;Min_cycle;Max_cycle;Signal;HPM_P1;HPM_P2
2023/01/26 00:02:30;;;;;;;6.88;2.00;;;;;;;-0.10;77.64;101993.53;5182331;28;20047;-80
2023/01/26 00:05:00;;;;;;;1.20;1.20;;;;;;;0.13;77.31;101990.91;5182262;28;20044;-79
2023/01/26 00:07:31;;;;;;;1.95;1.85;;;;;;;0.17;76.74;101979.88;5200066;28;20037;-81
2023/01/26 00:10:02;;;;;;;3.53;1.88;;;;;;;0.22;76.63;101988.66;5195443;28;20065;-80
2023/01/26 00:12:32;;;;;;;2.55;2.38;;;;;;;-0.08;76.49;101989.31;5179162;28;20026;-80
2023/01/26 00:15:03;;;;;;;2.88;1.60;;;;;;;0.06;77.00;101983.75;5192856;28;20659;-79
2023/01/26 00:17:37;;;;;;;3.28;3.05;;;;;;;0.19;76.64;101973.06;5185353;28;20037;-80
2023/01/26 00:20:08;;;;;;;4.93;4.40;;;;;;;0.27;76.54;101970.75;5216631;28;20044;-80
2023/01/26 00:22:38;;;;;;;4.82;3.88;;;;;;;0.28;76.39;101963.09;5192431;28;20076;-80
2023/01/26 00:25:09;;;;;;;1.83;1.75;;;;;;;-0.11;76.17;101963.38;5186509;28;20072;-80
2023/01/26 00:27:40;;;;;;;2.55;2.42;;;;;;;-0.09;76.56;101961.75;5204048;28;20488;-79
2023/01/26 00:30:10;;;;;;;2.33;2.22;;;;;;;0.01;76.00;101962.09;5204165;28;20037;-80
2023/01/26 00:32:41;;;;;;;1.80;1.70;;;;;;;0.19;76.56;101951.53;5199056;28;20061;-80
2023/01/26 00:35:11;;;;;;;2.25;2.15;;;;;;;0.29;75.67;101941.56;5190329;28;20244;-80
2023/01/26 00:37:42;;;;;;;3.97;3.75;;;;;;;0.32;75.90;101938.25;5186965;28;20071;-80
2023/01/26 00:40:12;;;;;;;3.65;3.45;;;;;;;0.35;76.00;101937.47;5198245;28;20452;-80
2023/01/26 00:42:43;;;;;;;3.38;3.05;;;;;;;0.35;75.61;101927.16;5205335;28;20112;-80
2023/01/26 00:45:13;;;;;;;9.27;4.80;;;;;;;0.36;76.05;101921.16;5195504;28;20021;-79
2023/01/26 00:47:44;;;;;;;3.15;2.95;;;;;;;0.37;76.05;101916.03;5188028;28;20116;-81
2023/01/26 00:50:15;;;;;;;1.88;1.83;;;;;;;0.39;75.79;101909.22;5195634;28;20104;-80
2023/01/26 00:52:45;;;;;;;4.75;3.85;;;;;;;0.43;75.57;101905.03;5207120;28;20040;-80
2023/01/26 00:55:17;;;;;;;1.02;1.02;;;;;;;0.45;75.76;101903.41;5197755;28;20029;-80
2023/01/26 00:57:48;;;;;;;4.22;3.60;;;;;;;0.46;75.57;101894.78;5179654;28;20056;-81
2023/01/26 01:00:19;;;;;;;3.17;2.97;;;;;;;0.45;75.63;101896.50;5187217;28;20029;-81
2023/01/26 01:02:49;;;;;;;4.13;3.83;;;;;;;0.42;75.84;101896.41;5182004;28;20037;-80
2023/01/26 01:05:20;;;;;;;2.25;2.15;;;;;;;0.42;76.34;101898.13;5200749;28;20026;-80
2023/01/26 01:07:51;;;;;;;3.40;3.20;;;;;;;0.45;75.93;101903.41;5179992;28;20298;-81
2023/01/26 01:10:22;;;;;;;1.98;1.88;;;;;;;0.42;76.21;101898.13;5182677;28;20026;-80
2023/01/26 01:12:52;;;;;;;4.00;3.55;;;;;;;0.50;75.67;101891.50;5187470;28;20034;-79
2023/01/26 01:15:24;;;;;;;2.95;2.83;;;;;;;0.51;75.50;101885.53;5193689;28;20021;-81
2023/01/26 01:17:54;;;;;;;5.13;4.63;;;;;;;0.54;75.59;101884.75;5205516;28;20045;-81
2023/01/26 01:20:24;;;;;;;1.67;1.65;;;;;;;0.47;75.53;101892.28;5200515;28;20029;-79
2023/01/26 01:22:55;;;;;;;3.20;2.95;;;;;;;0.52;76.08;101887.28;5198196;28;20045;-81
2023/01/26 01:25:25;;;;;;;4.43;3.53;;;;;;;0.57;75.36;101893.47;5200771;28;20035;-81
2023/01/26 01:27:56;;;;;;;3.05;2.85;;;;;;;0.56;75.31;101890.84;5196573;28;20060;-79
2023/01/26 01:30:26;;;;;;;7.20;4.85;;;;;;;0.62;75.61;101886.72;5186641;28;20025;-79
2023/01/26 01:32:57;;;;;;;2.25;1.58;;;;;;;0.51;75.57;101882.94;5202708;28;20037;-80
2023/01/26 01:35:28;;;;;;;3.75;3.45;;;;;;;0.52;76.37;101884.69;5189015;28;20053;-80
2023/01/26 01:37:58;;;;;;;3.47;2.42;;;;;;;0.64;75.37;101881.63;5183902;28;20255;-80
2023/01/26 01:40:29;;;;;;;2.33;2.22;;;;;;;0.61;75.42;101874.66;5187532;28;20049;-81
2023/01/26 01:42:59;;;;;;;3.17;2.97;;;;;;;0.67;75.72;101876.53;5192559;28;20057;-80
2023/01/26 01:45:46;;;;;;;13.45;5.38;;;;;;;0.68;75.59;101869.69;5189972;28;20260;-80
2023/01/26 01:48:29;;;;;;;1.02;1.02;;;;;;;0.69;76.03;101868.88;5200478;28;20048;-79
2023/01/26 01:51:04;;;;;;;1.90;1.80;;;;;;;0.70;75.79;101868.91;5212416;28;20037;-79
2023/01/26 01:53:39;;;;;;;1.20;1.20;;;;;;;0.68;75.71;101870.56;5207168;28;20048;-82
2023/01/26 01:56:20;;;;;;;2.15;2.05;;;;;;;0.55;76.59;101866.69;5199757;28;20040;-82
2023/01/26 01:58:54;;;;;;;1.90;1.80;;;;;;;0.59;76.04;101870.25;5200796;28;20175;-81
2023/01/26 02:01:24;;;;;;;;;;;;;;;0.68;75.86;101861.94;5218527;28;20039;-81
2023/01/26 02:04:00;;;;;;;3.05;2.85;;;;;;;0.66;76.35;101861.00;5189591;28;19916;-82
2023/01/26 02:06:50;;;;;;;3.10;2.75;;;;;;;0.60;76.56;101862.56;5188072;28;20117;-81
2023/01/26 02:12:26;;;;;;;1.98;1.88;;;;;;;0.70;76.24;101868.03;5205721;28;20027;-80
2023/01/26 02:14:57;;;;;;;2.15;2.03;;;;;;;0.76;75.92;101858.75;5192096;28;20532;-81
2023/01/26 02:17:27;;;;;;;3.30;3.08;;;;;;;0.74;76.31;101851.78;5183951;28;20029;-82
2023/01/26 02:20:05;;;;;;;5.38;4.00;;;;;;;0.59;76.44;101840.16;5197707;28;20049;-80
2023/01/26 02:22:39;;;;;;;1.52;1.45;;;;;;;0.66;76.53;101846.41;5179703;28;20029;-81
2023/01/26 02:25:31;;;;;;;8.05;4.65;;;;;;;0.66;76.70;101851.56;5181269;28;20098;-80
2023/01/26 02:28:02;;;;;;;1.08;1.08;;;;;;;0.69;76.71;101845.63;5180168;28;20040;-81
2023/01/26 02:30:33;;;;;;;1.00;1.00;;;;;;;0.61;76.86;101842.78;5195121;28;20018;-79
2023/01/26 02:33:03;;;;;;;2.58;2.38;;;;;;;0.47;77.41;101834.56;5189464;28;20102;-82
2023/01/26 02:35:34;;;;;;;2.67;2.53;;;;;;;0.57;77.33;101835.78;5185243;28;20512;-80
2023/01/26 02:38:04;;;;;;;4.50;2.45;;;;;;;0.56;77.33;101834.88;5186986;28;20053;-79
2023/01/26 02:40:47;;;;;;;26.60;3.92;;;;;;;0.57;77.25;101825.44;5182357;28;20030;-82
2023/01/26 02:43:18;;;;;;;4.63;2.90;;;;;;;0.62;76.97;101829.03;5186010;28;20045;-82
2023/01/26 02:45:48;;;;;;;4.60;3.85;;;;;;;0.65;76.96;101823.09;5204746;28;20367;-81
2023/01/26 02:51:08;;;;;;;4.28;2.92;;;;;;;0.69;76.58;101830.97;5200061;28;20029;-82
2023/01/26 02:53:39;;;;;;;1.80;1.67;;;;;;;0.74;76.27;101831.13;5185952;28;20049;-80
2023/01/26 02:56:09;;;;;;;5.28;3.78;;;;;;;0.61;76.74;101827.28;5186944;28;20237;-79
2023/01/26 02:58:40;;;;;;;1.98;1.88;;;;;;;0.68;77.04;101826.63;5205680;28;20044;-80
2023/01/26 03:01:10;;;;;;;2.97;2.28;;;;;;;0.69;76.84;101825.81;5191712;28;20041;-80
2023/01/26 03:03:41;;;;;;;2.47;2.33;;;;;;;0.77;76.51;101828.66;5231175;28;20195;-79
2023/01/26 03:06:12;;;;;;;2.25;2.05;;;;;;;0.72;77.02;101823.34;5218112;28;20068;-80
2023/01/26 03:08:42;;;;;;;0.93;0.93;;;;;;;0.56;77.40;101818.53;5178702;28;20045;-81
2023/01/26 03:11:13;;;;;;;2.35;2.25;;;;;;;0.58;77.12;101820.31;5190638;28;20038;-79
2023/01/26 03:13:43;;;;;;;8.80;4.63;;;;;;;0.56;77.55;101816.81;5183025;28;20513;-80
2023/01/26 03:16:17;;;;;;;2.33;1.77;;;;;;;0.62;77.26;101814.41;5204100;28;20025;-81
2023/01/26 03:27:26;;;;;;;1.85;0.98;;;;;;;0.69;77.00;101801.69;5200148;28;20049;-79
2023/01/26 03:29:57;;;;;;;3.17;2.88;;;;;;;0.71;76.92;101802.59;5182918;28;20408;-78
2023/01/26 03:32:27;;;;;;;6.32;3.83;;;;;;;0.70;77.07;101800.88;5198182;28;20037;-81
2023/01/26 03:34:58;;;;;;;2.67;2.50;;;;;;;0.73;76.93;101800.94;5179188;28;20041;-80
2023/01/26 03:37:33;;;;;;;3.05;2.85;;;;;;;0.80;76.40;101797.72;5186170;28;20033;-82
2023/01/26 03:56:59;;;;;;;3.17;1.88;;;;;;;0.78;77.06;101805.44;5198765;28;20798;-81
2023/01/26 03:59:38;;;;;;;2.75;2.55;;;;;;;0.79;76.61;101801.13;5181444;28;20033;-81
2023/01/26 04:10:38;;;;;;;5.40;5.00;;;;;;;0.84;77.45;101807.34;5209747;28;20037;-81
2023/01/26 04:21:36;;;;;;;1.65;1.55;;;;;;;0.81;76.67;101801.19;5194964;28;20025;-82
2023/01/26 04:24:13;;;;;;;2.53;1.05;;;;;;;0.88;76.96;101801.41;5182253;28;20049;-81
2023/01/26 04:26:43;;;;;;;3.13;2.17;;;;;;;0.84;76.40;101809.91;5190256;28;20060;-79
2023/01/26 04:29:15;;;;;;;1.65;1.55;;;;;;;0.86;76.52;101809.97;5194961;28;20109;-80
2023/01/26 04:31:45;;;;;;;0.75;0.75;;;;;;;0.82;76.89;101810.72;5195601;28;20045;-79
2023/01/26 04:34:16;;;;;;;5.10;3.58;;;;;;;0.86;76.47;101802.19;5196356;28;20033;-80
2023/01/26 04:36:46;;;;;;;2.38;2.28;;;;;;;0.86;76.64;101803.09;5187983;28;20160;-81
2023/01/26 04:39:17;;;;;;;2.20;2.10;;;;;;;0.62;77.58;101798.91;5183258;28;20033;-82
2023/01/26 04:41:47;;;;;;;2.00;1.90;;;;;;;0.69;77.93;101793.94;5182074;28;20139;-80
2023/01/26 04:44:18;;;;;;;2.00;1.90;;;;;;;0.77;77.12;101792.47;5195031;28;20037;-79
2023/01/26 04:46:48;;;;;;;1.05;1.05;;;;;;;0.74;77.79;101779.47;5185191;28;20735;-82
2023/01/26 04:49:19;;;;;;;1.30;1.30;;;;;;;0.63;77.78;101784.31;5202520;28;20055;-80
2023/01/26 04:51:49;;;;;;;5.32;3.28;;;;;;;0.65;78.20;101784.34;5208954;28;20093;-78
2023/01/26 04:54:20;;;;;;;1.80;1.70;;;;;;;0.65;77.81;101782.66;5206214;28;20024;-81
2023/01/26 04:56:50;;;;;;;2.13;2.03;;;;;;;0.74;77.45;101792.38;5209637;28;20615;-80
2023/01/26 04:59:21;;;;;;;5.32;3.38;;;;;;;0.71;76.95;101793.16;5180904;28;20033;-81
2023/01/26 05:01:51;;;;;;;4.05;3.13;;;;;;;0.72;77.23;101796.63;5192722;28;20041;-80
2023/01/26 05:04:22;;;;;;;1.50;1.45;;;;;;;0.77;77.29;101790.75;5197589;28;20473;-80
2023/01/26 05:06:52;;;;;;;1.55;1.42;;;;;;;0.71;77.68;101787.09;5184876;28;20029;-81
2023/01/26 05:09:23;;;;;;;2.00;1.90;;;;;;;0.72;76.92;101788.84;5199299;28;20056;-79
2023/01/26 05:11:53;;;;;;;1.95;1.75;;;;;;;0.73;76.95;101785.44;5196473;28;20645;-80
2023/01/26 05:14:23;;;;;;;3.80;1.17;;;;;;;0.78;76.99;101782.19;5182961;28;20041;-82
2023/01/26 05:16:54;;;;;;;2.97;2.70;;;;;;;0.77;77.48;101785.59;5183530;28;20034;-79
2023/01/26 05:19:24;;;;;;;1.90;1.80;;;;;;;0.85;76.84;101783.25;5179734;28;20056;-79
2023/01/26 05:21:55;;;;;;;5.10;4.60;;;;;;;0.79;76.85;101785.63;5184161;28;20045;-79
2023/01/26 05:24:25;;;;;;;4.35;3.50;;;;;;;0.79;76.98;101785.63;5195773;28;20034;-80
2023/01/26 05:27:19;;;;;;;4.57;4.28;;;;;;;0.77;77.22;101782.16;5205122;28;20064;-82
2023/01/26 05:29:50;;;;;;;2.35;2.15;;;;;;;0.87;77.01;101784.16;5211947;28;20034;-82
2023/01/26 05:32:21;;;;;;;3.45;3.08;;;;;;;0.82;76.80;101783.16;5196383;28;20578;-79
2023/01/26 05:34:52;;;;;;;7.55;3.92;;;;;;;0.85;76.85;101795.28;5179076;28;20306;-78
2023/01/26 05:37:27;;;;;;;5.25;2.45;;;;;;;0.81;77.18;101794.31;5198180;28;20034;-80
2023/01/26 05:39:58;;;;;;;2.45;2.25;;;;;;;0.83;76.59;101794.38;5195531;28;20045;-81
2023/01/26 05:42:29;;;;;;;4.72;3.45;;;;;;;0.73;77.36;101801.84;5196591;28;20177;-80
2023/01/26 05:44:59;;;;;;;2.47;2.28;;;;;;;0.77;77.12;101802.81;5177373;28;20041;-80
2023/01/26 05:47:30;;;;;;;3.13;2.50;;;;;;;0.78;77.01;101804.56;5202147;28;20065;-81
2023/01/26 05:50:00;;;;;;;3.42;3.22;;;;;;;0.76;76.92;101801.06;5182426;28;20030;-78
2023/01/26 05:52:31;;;;;;;2.17;2.08;;;;;;;0.84;77.18;101802.16;5199540;28;20555;-79
2023/01/26 05:55:03;;;;;;;2.72;2.58;;;;;;;0.75;77.61;101799.31;5194875;28;20073;-78
2023/01/26 05:57:34;;;;;;;1.08;1.08;;;;;;;0.71;77.93;101797.44;5195460;28;20037;-78
2023/01/26 06:00:05;;;;;;;2.67;2.47;;;;;;;0.69;78.17;101799.13;5177915;28;20034;-78
2023/01/26 06:02:35;;;;;;;3.03;2.88;;;;;;;0.77;77.74;101806.25;5196465;28;20116;-79
2023/01/26 06:05:07;;;;;;;1.90;1.80;;;;;;;0.70;77.84;101800.88;5191955;28;20519;-78
2023/01/26 06:07:37;;;;;;;1.92;1.83;;;;;;;0.36;79.21;101804.97;5191768;28;20688;-78
2023/01/26 06:10:09;;;;;;;3.88;3.50;;;;;;;0.37;80.23;101798.97;5172062;28;20052;-78
2023/01/26 06:12:41;;;;;;;2.08;1.98;;;;;;;0.46;79.70;101807.00;5191014;28;20033;-79
2023/01/26 06:15:12;;;;;;;3.35;2.85;;;;;;;0.34;80.28;101810.06;5199861;28;20045;-78
2023/01/26 06:17:42;;;;;;;2.78;2.53;;;;;;;0.49;78.95;101814.84;5191723;28;20542;-79
2023/01/26 06:20:13;;;;;;;3.53;3.25;;;;;;;0.49;78.98;101816.56;5181708;28;20536;-78
2023/01/26 06:22:44;;;;;;;1.55;1.45;;;;;;;0.60;78.34;101818.66;5178447;28;20046;-78
2023/01/26 06:25:14;;;;;;;4.90;4.47;;;;;;;0.48;79.59;101815.69;5196839;28;20774;-78
2023/01/26 06:27:45;;;;;;;1.83;1.73;;;;;;;0.45;79.37;101810.44;5192300;28;20544;-79
2023/01/26 06:30:15;;;;;;;2.40;2.30;;;;;;;0.59;78.15;101814.31;5193031;28;20109;-78
2023/01/26 06:32:46;;;;;;;1.35;1.35;;;;;;;0.52;78.62;101807.22;5197959;28;20048;-78
2023/01/26 06:35:17;;;;;;;4.15;3.58;;;;;;;0.62;77.64;101813.53;5200405;28;20032;-78
2023/01/26 06:37:49;;;;;;;2.63;2.42;;;;;;;0.61;78.14;101807.50;5223288;28;20048;-78
2023/01/26 06:40:19;;;;;;;3.25;3.05;;;;;;;0.62;77.33;101814.41;5188028;28;20029;-78
2023/01/26 06:42:50;;;;;;;4.78;3.22;;;;;;;0.59;77.19;101811.75;5198777;28;20400;-78
2023/01/26 06:45:20;;;;;;;4.07;3.80;;;;;;;0.65;77.57;101811.06;5193541;28;20112;-78
2023/01/26 06:47:51;;;;;;;2.35;2.15;;;;;;;0.53;78.35;101811.56;5176724;28;20116;-78
2023/01/26 06:50:26;;;;;;;2.17;2.08;;;;;;;0.57;78.57;101810.81;5182094;28;20558;-78
2023/01/26 06:52:59;;;;;;;3.42;3.22;;;;;;;0.54;78.92;101821.03;5205458;28;20538;-78
2023/01/26 06:55:35;;;;;;;2.78;2.60;;;;;;;0.56;78.38;101815.94;5180125;28;20025;-78
2023/01/26 06:58:05;;;;;;;0.73;0.73;;;;;;;0.54;78.15;101815.00;5172686;28;20046;-78
2023/01/26 07:00:38;;;;;;;1.20;1.20;;;;;;;0.61;77.96;101822.13;5203354;28;20084;-78
2023/01/26 07:03:10;;;;;;;2.50;2.33;;;;;;;0.61;77.87;101819.53;5190383;28;20041;-78
2023/01/26 07:05:40;;;;;;;1.80;1.70;;;;;;;0.65;77.75;101820.50;5187762;28;20038;-78
2023/01/26 07:08:11;;;;;;;1.55;1.50;;;;;;;0.62;78.81;101824.72;5196849;28;20038;-78
2023/01/26 07:10:41;;;;;;;2.35;2.15;;;;;;;0.63;78.11;101816.16;5199411;28;20557;-78
2023/01/26 07:13:12;;;;;;;1.90;1.80;;;;;;;0.70;78.07;101827.56;5196701;28;20055;-78
2023/01/26 07:15:42;;;;;;;1.20;1.20;;;;;;;0.52;78.58;101824.41;5199826;28;20037;-77
2023/01/26 07:18:13;;;;;;;1.88;1.77;;;;;;;0.63;78.21;101821.31;5186118;28;20047;-78
2023/01/26 07:20:43;;;;;;;3.17;2.97;;;;;;;0.20;80.34;101825.13;5198384;28;20068;-78
2023/01/26 07:23:13;;;;;;;0.95;0.95;;;;;;;0.39;79.44;101830.88;5194489;28;20055;-77
2023/01/26 07:25:44;;;;;;;2.85;1.73;;;;;;;0.52;78.44;101825.28;5191063;28;20036;-78
2023/01/26 07:28:14;;;;;;;0.60;0.60;;;;;;;0.55;78.18;101825.38;5172739;28;20046;-78
2023/01/26 07:30:45;;;;;;;2.35;2.25;;;;;;;0.55;77.84;101817.63;5197045;28;20057;-79
2023/01/26 07:33:15;;;;;;;3.35;3.15;;;;;;;0.60;77.83;101816.09;5190173;28;20049;-79
2023/01/26 07:35:46;;;;;;;4.45;4.15;;;;;;;0.50;78.67;101824.34;5190507;28;20029;-78
2023/01/26 07:38:17;;;;;;;1.58;1.58;;;;;;;0.46;78.82;101820.81;5195413;28;20579;-77
2023/01/26 07:40:47;;;;;;;2.22;2.05;;;;;;;0.52;78.58;101826.97;5199432;28;20038;-79
2023/01/26 07:43:18;;;;;;;1.25;1.25;;;;;;;0.60;77.89;101820.34;5182621;28;20048;-78
2023/01/26 07:45:51;;;;;;;1.90;1.80;;;;;;;0.65;77.92;101820.50;5183030;28;20091;-78
2023/01/26 07:48:23;;;;;;;2.53;2.17;;;;;;;0.60;78.25;101822.94;5183220;28;20068;-80
2023/01/26 07:50:56;;;;;;;4.63;2.58;;;;;;;0.48;79.02;101813.09;5196061;28;20041;-80
2023/01/26 07:53:28;;;;;;;4.82;2.47;;;;;;;0.58;78.47;101817.72;5193930;28;20045;-79
2023/01/26 07:56:13;;;;;;;1.77;1.67;;;;;;;0.60;77.79;101816.09;5195224;28;20039;-78
2023/01/26 07:58:48;;;;;;;2.58;2.35;;;;;;;0.56;79.40;101824.53;5185604;28;20061;-80
2023/01/26 08:01:19;;;;;;;7.78;2.35;;;;;;;0.47;79.66;101832.00;5190810;28;20037;-79
2023/01/26 08:03:50;;;;;;;2.10;2.00;;;;;;;0.53;78.81;101836.50;5187623;28;20060;-79
2023/01/26 08:06:21;;;;;;;1.20;1.20;;;;;;;0.54;79.12;101833.94;5179985;28;20083;-77
2023/01/26 08:08:55;;;;;;;4.13;3.83;;;;;;;0.69;78.48;101832.69;5173000;28;20045;-77
2023/01/26 08:11:25;;;;;;;1.75;1.65;;;;;;;0.62;78.13;101829.91;5191678;28;20021;-78
2023/01/26 08:13:56;;;;;;;1.85;1.75;;;;;;;0.70;78.08;101821.53;5194101;28;20045;-78
2023/01/26 08:16:27;;;;;;;1.75;1.67;;;;;;;0.60;78.98;101829.00;5197673;28;20029;-77
2023/01/26 08:18:57;;;;;;;1.67;1.60;;;;;;;0.67;78.93;101830.06;5195677;28;20045;-78
2023/01/26 08:21:27;;;;;;;2.00;1.85;;;;;;;0.67;78.20;101836.94;5193429;28;20022;-78
2023/01/26 08:24:00;;;;;;;2.15;2.00;;;;;;;0.62;78.98;101835.06;5190608;28;20041;-78
2023/01/26 08:26:46;;;;;;;2.17;2.08;;;;;;;0.67;79.02;101837.78;5195839;28;20045;-77
2023/01/26 08:29:17;;;;;;;1.98;1.88;;;;;;;0.68;78.66;101833.53;5178436;28;20725;-78
2023/01/26 08:31:47;;;;;;;1.80;1.70;;;;;;;0.78;78.17;101840.75;5172682;28;20442;-77
2023/01/26 08:34:18;;;;;;;2.40;2.30;;;;;;;0.85;77.66;101836.63;5180502;28;20122;-77
2023/01/26 08:36:48;;;;;;;1.77;1.67;;;;;;;0.64;79.09;101832.56;5190503;28;20104;-79
2023/01/26 08:39:19;;;;;;;1.17;1.17;;;;;;;0.74;78.74;101834.59;5199802;28;20056;-78
2023/01/26 08:41:49;;;;;;;3.72;3.42;;;;;;;0.72;79.40;101843.09;5193653;28;20030;-78
2023/01/26 08:44:20;;;;;;;2.08;1.88;;;;;;;0.73;79.07;101843.19;5184059;28;20083;-78
2023/01/26 08:46:50;;;;;;;2.28;2.15;;;;;;;0.78;79.14;101845.91;5179670;28;20055;-78
2023/01/26 08:49:20;;;;;;;2.15;2.05;;;;;;;0.74;79.37;101844.03;5199797;28;20091;-78
2023/01/26 08:51:51;;;;;;;1.85;1.70;;;;;;;0.82;79.36;101847.75;5191588;28;20522;-78
2023/01/26 08:54:22;;;;;;;2.78;2.63;;;;;;;0.80;79.88;101849.41;5188635;28;20452;-79
2023/01/26 08:56:54;;;;;;;3.60;3.30;;;;;;;0.78;80.17;101851.09;5188020;28;20025;-78
2023/01/26 08:59:24;;;;;;;1.23;1.20;;;;;;;0.85;79.59;101852.13;5193209;28;20044;-78
2023/01/26 09:01:55;;;;;;;1.52;1.52;;;;;;;0.88;79.80;101854.81;5196231;28;20033;-78
2023/01/26 09:04:26;;;;;;;2.10;2.00;;;;;;;0.84;79.87;101861.59;5179861;28;20064;-78
2023/01/26 09:06:56;;;;;;;2.78;2.63;;;;;;;0.84;80.04;101861.59;5179743;28;20029;-78
2023/01/26 09:09:27;;;;;;;2.58;2.38;;;;;;;0.87;79.79;101859.09;5203323;28;20030;-78
2023/01/26 09:11:57;;;;;;;2.13;2.00;;;;;;;0.91;79.68;101860.97;5204472;28;20049;-79
2023/01/26 09:14:27;;;;;;;0.60;0.60;;;;;;;0.99;79.30;101862.91;5191893;28;20046;-78
2023/01/26 09:16:58;;;;;;;3.15;2.92;;;;;;;1.01;79.18;101869.00;5173881;28;20787;-78
2023/01/26 09:19:28;;;;;;;1.05;1.05;;;;;;;1.06;79.42;101872.59;5196882;28;20044;-79
2023/01/26 09:21:59;;;;;;;1.08;1.08;;;;;;;1.07;79.61;101874.34;5171539;28;20030;-79
2023/01/26 09:24:29;;;;;;;2.70;2.58;;;;;;;1.05;79.40;101876.00;5175860;28;20041;-79
2023/01/26 09:27:00;;;;;;;2.13;2.03;;;;;;;1.03;79.48;101878.53;5174037;28;20067;-79
2023/01/26 09:29:30;;;;;;;1.02;1.02;;;;;;;1.12;78.85;101875.34;5186837;28;20038;-78
2023/01/26 09:32:01;;;;;;;3.55;3.25;;;;;;;1.18;78.59;101883.31;5184993;28;20029;-80
2023/01/26 09:34:31;;;;;;;2.85;2.75;;;;;;;1.17;78.68;101875.50;5181890;28;20026;-79
2023/01/26 09:37:01;;;;;;;1.73;1.65;;;;;;;1.12;79.64;101877.06;5179318;28;20036;-78
2023/01/26 09:39:32;;;;;;;2.42;2.28;;;;;;;1.02;80.30;101871.63;5189077;28;20045;-78
2023/01/26 09:42:24;;;;;;;2.25;2.15;;;;;;;1.01;80.19;101874.16;5178659;28;20087;-78
2023/01/26 09:45:04;;;;;;;2.75;2.55;;;;;;;0.99;80.85;101871.53;5169008;28;20112;-78
2023/01/26 09:47:40;;;;;;;5.82;2.67;;;;;;;1.07;79.77;101882.09;5185608;28;20572;-79
2023/01/26 09:50:17;;;;;;;3.28;2.97;;;;;;;1.07;80.15;101876.94;5175938;28;20116;-78
2023/01/26 09:52:56;;;;;;;1.85;1.77;;;;;;;1.12;79.74;101877.06;5195557;28;20057;-78
2023/01/26 09:55:30;;;;;;;4.68;4.38;;;;;;;1.16;79.23;101878.94;5190143;28;20033;-79
2023/01/26 09:58:09;;;;;;;2.53;2.33;;;;;;;1.12;80.42;101883.09;5202795;28;20017;-79
2023/01/26 10:00:58;;;;;;;1.92;1.83;;;;;;;1.00;80.97;101875.00;5199021;28;20034;-78
2023/01/26 10:03:42;;;;;;;3.28;3.08;;;;;;;0.94;81.50;101871.41;5194892;28;20440;-78
2023/01/26 10:06:27;;;;;;;2.80;2.65;;;;;;;1.02;81.10;101870.75;5205311;28;20037;-78
2023/01/26 10:09:15;;;;;;;1.52;1.42;;;;;;;1.08;81.27;101869.22;5188332;28;20920;-79
2023/01/26 10:11:51;;;;;;;2.90;2.70;;;;;;;1.19;80.25;101871.25;5177693;28;20045;-80
2023/01/26 10:14:34;;;;;;;4.53;3.42;;;;;;;1.24;79.90;101867.97;5180528;28;20095;-79
2023/01/26 10:17:11;;;;;;;1.20;1.20;;;;;;;1.27;79.71;101867.19;5199906;28;20033;-80
2023/01/26 10:19:47;;;;;;;5.50;4.95;;;;;;;1.21;80.43;101854.09;5190379;28;20127;-79
2023/01/26 10:22:30;;;;;;;2.50;2.30;;;;;;;1.14;81.50;101855.59;5198165;28;20116;-78
2023/01/26 10:25:00;;;;;;;1.33;1.33;;;;;;;1.21;80.87;101849.78;5175939;28;20059;-78
2023/01/26 10:27:32;;;;;;;0.98;0.98;;;;;;;1.28;80.21;101855.16;5185353;28;20041;-78
2023/01/26 10:30:04;;;;;;;3.28;2.97;;;;;;;1.24;80.86;101852.47;5180171;28;20650;-78
2023/01/26 10:32:36;;;;;;;2.15;2.05;;;;;;;1.33;80.51;101851.84;5178771;28;20037;-78
2023/01/26 10:35:15;;;;;;;2.10;1.90;;;;;;;1.39;80.94;101846.88;5166048;28;20112;-78
2023/01/26 10:37:46;;;;;;;2.88;2.78;;;;;;;1.37;81.29;101843.38;5194392;28;20037;-78
2023/01/26 10:40:18;;;;;;;0.90;0.90;;;;;;;1.33;80.88;101856.16;5196637;28;20452;-77
2023/01/26 10:42:56;;;;;;;1.83;1.73;;;;;;;1.30;81.71;101844.03;5207429;28;20033;-78
2023/01/26 10:45:31;;;;;;;1.25;1.25;;;;;;;1.34;81.33;101852.75;5181681;28;20033;-79
2023/01/26 10:48:23;;;;;;;0.93;0.93;;;;;;;1.38;81.20;101849.41;5180341;28;20536;-78
2023/01/26 10:50:53;;;;;;;2.65;2.45;;;;;;;1.54;80.43;101838.66;5199246;28;20034;-78
2023/01/26 10:53:27;;;;;;;2.15;2.05;;;;;;;1.46;81.24;101842.75;5175795;28;20156;-77
2023/01/26 10:55:58;;;;;;;2.28;2.17;;;;;;;1.47;81.10;101846.22;5188586;28;20061;-77
2023/01/26 10:58:56;;;;;;;1.83;1.73;;;;;;;1.54;80.74;101841.25;5191886;28;20144;-77
2023/01/26 11:01:26;;;;;;;2.88;1.80;;;;;;;1.49;81.01;101845.41;5176511;28;20053;-77
2023/01/26 11:04:13;;;;;;;1.60;1.52;;;;;;;1.51;80.95;101837.69;5195650;28;20473;-77
2023/01/26 11:06:44;;;;;;;1.83;1.73;;;;;;;1.54;80.63;101840.38;5175627;28;20042;-78
2023/01/26 11:09:26;;;;;;;2.17;2.05;;;;;;;1.58;80.86;101837.03;5181098;28;20060;-78
2023/01/26 11:12:01;;;;;;;1.25;1.17;;;;;;;1.53;81.06;101833.44;5183956;28;20029;-78
2023/01/26 11:14:33;;;;;;;0.77;0.77;;;;;;;1.57;81.08;101831.00;5175616;28;20133;-78
2023/01/26 11:17:20;;;;;;;1.67;1.58;;;;;;;1.63;80.98;101824.22;5195128;28;20044;-78
2023/01/26 11:20:00;;;;;;;3.05;1.52;;;;;;;1.46;82.51;101827.22;5176422;28;20049;-78
2023/01/26 11:23:06;;;;;;;1.75;1.65;;;;;;;1.44;82.20;101818.56;5193525;28;20101;-77
2023/01/26 11:26:19;;;;;;;2.25;2.08;;;;;;;1.54;82.10;101817.97;5182282;28;20030;-77
2023/01/26 11:28:59;;;;;;;3.13;1.70;;;;;;;1.56;81.81;101813.72;5193013;28;20042;-78
2023/01/26 11:31:51;;;;;;;3.30;2.15;;;;;;;1.65;80.87;101814.81;5187860;28;20054;-79
2023/01/26 11:34:52;;;;;;;0.63;0.63;;;;;;;1.66;81.36;101808.78;5184899;28;20449;-79
2023/01/26 11:37:35;;;;;;;1.08;1.08;;;;;;;1.63;81.68;101813.88;5175021;28;20053;-79
2023/01/26 11:40:15;;;;;;;2.08;1.98;;;;;;;1.59;81.85;101815.50;5171233;28;20053;-81
2023/01/26 11:42:45;;;;;;;1.25;1.25;;;;;;;1.44;82.33;101821.16;5197889;28;20025;-80
2023/01/26 11:45:49;;;;;;;2.00;1.90;;;;;;;1.48;82.62;101820.38;5196163;28;20068;-82
2023/01/26 11:48:36;;;;;;;0.75;0.75;;;;;;;1.52;82.41;101827.41;5187466;28;20044;-80
2023/01/26 11:51:09;;;;;;;0.95;0.95;;;;;;;1.59;82.32;101817.22;5190394;28;20033;-81
2023/01/26 11:54:11;;;;;;;2.00;1.90;;;;;;;1.54;82.61;101812.78;5185621;28;20045;-80
2023/01/26 11:56:54;;;;;;;1.77;1.67;;;;;;;1.43;83.04;101814.22;5194296;28;20033;-79
2023/01/26 11:59:31;;;;;;;1.30;1.30;;;;;;;1.65;81.99;101804.44;5178963;28;20045;-80
2023/01/26 12:02:16;;;;;;;1.50;1.40;;;;;;;1.59;82.26;101804.28;5192000;28;20033;-80
2023/01/26 12:04:47;;;;;;;1.08;0.93;;;;;;;1.46;82.91;101801.34;5205413;28;20050;-79
2023/01/26 12:07:30;;;;;;;1.38;1.38;;;;;;;1.31;83.94;101795.75;5193903;28;20163;-79
2023/01/26 12:10:03;;;;;;;0.52;0.52;;;;;;;1.38;83.47;101797.69;5174283;28;20033;-79
2023/01/26 12:12:42;;;;;;;0.98;0.95;;;;;;;1.47;83.46;101781.56;5188761;28;20045;-80
2023/01/26 12:15:20;;;;;;;0.90;0.90;;;;;;;1.61;83.18;101782.81;5181868;28;20041;-80
2023/01/26 12:18:20;;;;;;;0.57;0.57;;;;;;;1.57;82.71;101778.41;5191691;28;20461;-80
2023/01/26 12:20:59;;;;;;;0.57;0.57;;;;;;;1.56;83.43;101781.81;5190415;28;20033;-80
2023/01/26 12:23:40;;;;;;;0.40;0.40;;;;;;;1.47;84.62;101781.56;5187994;28;20022;-79
2023/01/26 12:26:15;;;;;;;3.88;2.00;;;;;;;1.20;86.12;101778.22;5197282;28;20029;-84
2023/01/26 12:29:04;;;;;;;0.82;0.82;;;;;;;1.23;87.19;101786.06;5179504;28;20033;-81
2023/01/26 12:31:44;;;;;;;2.78;1.08;;;;;;;1.36;85.85;101770.91;5199645;28;20671;-80
2023/01/26 12:34:15;;;;;;;1.20;1.20;;;;;;;1.37;86.18;101770.94;5182444;28;20319;-80
2023/01/26 12:37:10;;;;;;;2.63;2.20;;;;;;;1.49;84.99;101761.78;5213231;28;20037;-81
2023/01/26 12:39:50;;;;;;;0.40;0.40;;;;;;;1.53;84.88;101759.28;5179191;28;20041;-81
2023/01/26 12:42:49;;;;;;;1.40;1.30;;;;;;;1.56;84.66;101749.03;5200119;28;20412;-80
2023/01/26 12:45:29;;;;;;;0.70;0.70;;;;;;;1.30;87.42;101738.00;5206337;28;20025;-82
2023/01/26 12:48:44;;;;;;;0.90;0.90;;;;;;;1.31;87.70;101736.28;5186314;28;20084;-79
2023/01/26 12:51:23;;;;;;;0.50;0.50;;;;;;;1.58;85.85;101738.72;5190454;28;20045;-81
2023/01/26 12:54:04;;;;;;;0.50;0.50;;;;;;;1.56;85.62;101738.69;5181984;28;20242;-81
2023/01/26 12:56:40;;;;;;;0.60;0.60;;;;;;;1.45;86.71;101745.28;5181995;28;20029;-82